
Distance (Route):
Temperature : 20.9°C
Humidity : 41.1%
Pressure : 0hPa| Receiver | Date | Latitude | Longitude | Direction | Speed | Altitude | Climb | Temperature | Humidity | Pressure | Voltage | Killtimer | Uptime | BKT | XDATA |
|---|---|---|---|---|---|---|---|---|---|---|---|---|---|---|---|
| LZ4TU-5 | 2026-09-04 19:05:51 | 43.69590 | 22.62195 | 138° | 29km/h | 1134m | -12.9m/s | 20.9°C | 41.1% | 0hPa | 5.5V | 00:00:00 | 00:00:00 | 00:00:00 | |
| LZ4TU-5 | 2026-09-04 19:05:45 | 43.69622 | 22.62154 | 138° | 29km/h | 1219m | -13.2m/s | 20.3°C | 42.1% | 0hPa | 5.5V | 00:00:00 | 00:00:00 | 00:00:00 | |
| LZ4TU-5 | 2026-09-04 19:05:41 | 43.69645 | 22.62124 | 138° | 31km/h | 1275m | -12.2m/s | 19.7°C | 42.6% | 0hPa | 5.5V | 00:00:00 | 00:00:00 | 00:00:00 | |
| LZ4TU-5 | 2026-09-04 19:05:37 | 43.69668 | 22.62095 | 138° | 31km/h | 1328m | -13.0m/s | 19.3°C | 43.2% | 0hPa | 5.5V | 00:00:00 | 00:00:00 | 00:00:00 | |
| LZ4TU-5 | 2026-09-04 19:05:32 | 43.69698 | 22.62057 | 138° | 31km/h | 1383m | -12.3m/s | 18.7°C | 44.3% | 0hPa | 5.5V | 00:00:00 | 00:00:00 | 00:00:00 | |
| LZ4TU-5 | 2026-09-04 19:05:28 | 43.69721 | 22.62028 | 139° | 31km/h | 1434m | -12.6m/s | 18.2°C | 45.1% | 0hPa | 5.5V | 00:00:00 | 00:00:00 | 00:00:00 | |
| LZ4TU-5 | 2026-09-04 19:05:23 | 43.69750 | 22.61993 | 139° | 29km/h | 1501m | -13.2m/s | 17.6°C | 46.3% | 0hPa | 5.5V | 00:00:00 | 00:00:00 | 00:00:00 | |
| LZ4TU-5 | 2026-09-04 19:05:19 | 43.69771 | 22.61966 | 139° | 29km/h | 1553m | -12.6m/s | 17.1°C | 47.3% | 0hPa | 5.5V | 00:00:00 | 00:00:00 | 00:00:00 | |
| LZ4TU-5 | 2026-09-04 19:05:14 | 43.69799 | 22.61931 | 140° | 29km/h | 1610m | -12.9m/s | 16.5°C | 48.4% | 0hPa | 5.5V | 00:00:00 | 00:00:00 | 00:00:00 | |
| LZ4TU-5 | 2026-09-04 19:05:10 | 43.69821 | 22.61904 | 140° | 29km/h | 1663m | -12.5m/s | 16.0°C | 49.4% | 0hPa | 5.5V | 00:00:00 | 00:00:00 | 00:00:00 | |
| LZ4TU-5 | 2026-09-04 19:05:05 | 43.69849 | 22.61869 | 138° | 31km/h | 1729m | -12.7m/s | 15.4°C | 50.7% | 0hPa | 5.5V | 00:00:00 | 00:00:00 | 00:00:00 | |
| LZ4TU-5 | 2026-09-04 19:05:00 | 43.69878 | 22.61833 | 140° | 31km/h | 1794m | -13.0m/s | 14.8°C | 52.0% | 0hPa | 5.5V | 00:00:00 | 00:00:00 | 00:00:00 | |
| LZ4TU-5 | 2026-09-04 19:04:55 | 43.69908 | 22.61797 | 141° | 31km/h | 1854m | -13.1m/s | 14.2°C | 52.9% | 0hPa | 5.5V | 00:00:00 | 00:00:00 | 00:00:00 | |
| LZ4TU-5 | 2026-09-04 19:04:51 | 43.69930 | 22.61769 | 138° | 29km/h | 1907m | -13.6m/s | 13.7°C | 53.3% | 0hPa | 5.5V | 00:00:00 | 00:00:00 | 00:00:00 | |
| LZ4TU-5 | 2026-09-04 19:04:47 | 43.69950 | 22.61742 | 138° | 27km/h | 1961m | -13.0m/s | 13.2°C | 54.5% | 0hPa | 5.5V | 00:00:00 | 00:00:00 | 00:00:00 | |
| LZ4TU-5 | 2026-09-04 19:04:42 | 43.69974 | 22.61709 | 134° | 26km/h | 2025m | -12.7m/s | 12.7°C | 54.7% | 0hPa | 5.5V | 00:00:00 | 00:00:00 | 00:00:00 | |
| LZ4TU-5 | 2026-09-04 19:04:37 | 43.69991 | 22.61677 | 131° | 22km/h | 2084m | -13.5m/s | 12.3°C | 54.5% | 0hPa | 5.5V | 00:00:00 | 00:00:00 | 00:00:00 | |
| LZ4TU-5 | 2026-09-04 19:04:32 | 43.70004 | 22.61649 | 124° | 18km/h | 2151m | -13.2m/s | 11.8°C | 56.5% | 0hPa | 5.5V | 00:00:00 | 00:00:00 | 00:00:00 | |
| LZ4TU-5 | 2026-09-04 19:04:28 | 43.70013 | 22.61626 | 120° | 20km/h | 2206m | -13.5m/s | 11.2°C | 58.0% | 0hPa | 5.5V | 00:00:00 | 00:00:00 | 00:00:00 | |
| LZ4TU-5 | 2026-09-04 19:04:23 | 43.70025 | 22.61596 | 120° | 18km/h | 2274m | -13.2m/s | 10.6°C | 59.7% | 0hPa | 5.5V | 00:00:00 | 00:00:00 | 00:00:00 | |
| LZ4TU-5 | 2026-09-04 19:04:18 | 43.70036 | 22.61569 | 121° | 16km/h | 2336m | -13.2m/s | 10.2°C | 58.3% | 0hPa | 5.5V | 00:00:00 | 00:00:00 | 00:00:00 | |
| LZ4TU-5 | 2026-09-04 19:04:13 | 43.70045 | 22.61548 | 127° | 13km/h | 2399m | -13.5m/s | 10.0°C | 54.4% | 0hPa | 5.5V | 00:00:00 | 00:00:00 | 00:00:00 | |
| LZ4TU-5 | 2026-09-04 19:04:09 | 43.70053 | 22.61534 | 133° | 13km/h | 2455m | -13.6m/s | 9.9°C | 48.3% | 0hPa | 5.5V | 00:00:00 | 00:00:00 | 00:00:00 | |
| LZ4TU-5 | 2026-09-04 19:04:05 | 43.70062 | 22.61521 | 147° | 13km/h | 2511m | -13.7m/s | 9.7°C | 44.5% | 0hPa | 5.5V | 00:00:00 | 00:00:00 | 00:00:00 | |
| LZ4TU-5 | 2026-09-04 19:04:01 | 43.70074 | 22.61514 | 169° | 15km/h | 2567m | -13.3m/s | 9.6°C | 40.8% | 0hPa | 5.5V | 00:00:00 | 00:00:00 | 00:00:00 | |
| LZ4TU-5 | 2026-09-04 19:03:57 | 43.70088 | 22.61512 | 182° | 18km/h | 2620m | -12.9m/s | 9.2°C | 39.0% | 0hPa | 5.5V | 00:00:00 | 00:00:00 | 00:00:00 | |
| LZ4TU-5 | 2026-09-04 19:03:52 | 43.70114 | 22.61514 | 185° | 20km/h | 2679m | -12.7m/s | 9.3°C | 29.3% | 0hPa | 5.5V | 00:00:00 | 00:00:00 | 00:00:00 | |
| LZ4TU-5 | 2026-09-04 19:03:47 | 43.70140 | 22.61516 | 183° | 22km/h | 2745m | -13.9m/s | 9.5°C | 20.4% | 0hPa | 5.5V | 00:00:00 | 00:00:00 | 00:00:00 | |
| LZ4TU-5 | 2026-09-04 19:03:42 | 43.70167 | 22.61516 | 179° | 20km/h | 2817m | -13.9m/s | 9.1°C | 20.7% | 0hPa | 5.5V | 00:00:00 | 00:00:00 | 00:00:00 | |
| LZ4TU-5 | 2026-09-04 19:03:37 | 43.70192 | 22.61516 | 181° | 18km/h | 2883m | -13.6m/s | 8.6°C | 20.5% | 0hPa | 5.5V | 00:00:00 | 00:00:00 | 00:00:00 | |
| LZ4TU-5 | 2026-09-04 19:03:32 | 43.70216 | 22.61517 | 185° | 18km/h | 2943m | -13.6m/s | 8.1°C | 20.2% | 0hPa | 5.5V | 00:00:00 | 00:00:00 | 00:00:00 | |
| LZ4TU-5 | 2026-09-04 19:03:28 | 43.70234 | 22.61519 | 185° | 18km/h | 3000m | -13.8m/s | 7.7°C | 20.5% | 0hPa | 5.5V | 00:00:00 | 00:00:00 | 00:00:00 | |
| LZ4TU-5 | 2026-09-04 19:03:23 | 43.70256 | 22.61523 | 184° | 18km/h | 3071m | -13.4m/s | 7.0°C | 21.1% | 0hPa | 5.5V | 00:00:00 | 00:00:00 | 00:00:00 | |
| LZ4TU-5 | 2026-09-04 19:03:18 | 43.70282 | 22.61523 | 179° | 22km/h | 3141m | -14.2m/s | 6.6°C | 20.7% | 0hPa | 5.5V | 00:00:00 | 00:00:00 | 00:00:00 | |
| LZ4TU-5 | 2026-09-04 19:03:13 | 43.70310 | 22.61517 | 171° | 26km/h | 3210m | -12.8m/s | 6.5°C | 23.6% | 0hPa | 5.5V | 00:00:00 | 00:00:00 | 00:00:00 | |
| LZ4TU-5 | 2026-09-04 19:03:08 | 43.70341 | 22.61507 | 168° | 24km/h | 3274m | -13.0m/s | 6.2°C | 25.9% | 0hPa | 5.5V | 00:00:00 | 00:00:00 | 00:00:00 | |
| LZ4TU-5 | 2026-09-04 19:03:04 | 43.70366 | 22.61499 | 167° | 26km/h | 3327m | -13.1m/s | 5.8°C | 26.8% | 0hPa | 5.5V | 00:00:00 | 00:00:00 | 00:00:00 | |
| LZ4TU-5 | 2026-09-04 19:02:54 | 43.70435 | 22.61477 | 171° | 31km/h | 3452m | -13.3m/s | 4.8°C | 27.9% | 0hPa | 5.5V | 00:00:00 | 00:00:00 | 00:00:00 | |
| LZ4TU-5 | 2026-09-04 19:02:49 | 43.70475 | 22.61470 | 181° | 33km/h | 3521m | -13.3m/s | 4.5°C | 25.2% | 0hPa | 5.5V | 00:00:00 | 00:00:00 | 00:00:00 | |
| LZ4TU-5 | 2026-09-04 19:02:45 | 43.70508 | 22.61473 | 189° | 35km/h | 3577m | -13.2m/s | 4.1°C | 27.5% | 0hPa | 5.5V | 00:00:00 | 00:00:00 | 00:00:00 | |
| LZ4TU-5 | 2026-09-04 19:02:41 | 43.70544 | 22.61482 | 193° | 38km/h | 3632m | -13.3m/s | 3.9°C | 37.6% | 0hPa | 5.5V | 00:00:00 | 00:00:00 | 00:00:00 | |
| LZ4TU-5 | 2026-09-04 19:02:36 | 43.70592 | 22.61498 | 197° | 40km/h | 3703m | -13.6m/s | 3.4°C | 42.1% | 0hPa | 5.5V | 00:00:00 | 00:00:00 | 00:00:00 | |
| LZ4TU-5 | 2026-09-04 19:02:31 | 43.70644 | 22.61520 | 199° | 46km/h | 3770m | -13.4m/s | 3.2°C | 51.4% | 0hPa | 5.5V | 00:00:00 | 00:00:00 | 00:00:00 | |
| LZ4TU-5 | 2026-09-04 19:02:26 | 43.70702 | 22.61546 | 198° | 51km/h | 3832m | -13.5m/s | 2.9°C | 53.3% | 0hPa | 5.5V | 00:00:00 | 00:00:00 | 00:00:00 | |
| LZ4TU-5 | 2026-09-04 19:02:22 | 43.70753 | 22.61566 | 197° | 53km/h | 3890m | -13.8m/s | 2.7°C | 52.5% | 0hPa | 5.5V | 00:00:00 | 00:00:00 | 00:00:00 | |
| LZ4TU-5 | 2026-09-04 19:02:17 | 43.70819 | 22.61591 | 196° | 57km/h | 3961m | -13.5m/s | 2.3°C | 47.6% | 0hPa | 5.5V | 00:00:00 | 00:00:00 | 00:00:00 | |
| LZ4TU-5 | 2026-09-04 19:02:12 | 43.70888 | 22.61616 | 196° | 55km/h | 4028m | -13.3m/s | 1.8°C | 46.1% | 0hPa | 5.5V | 00:00:00 | 00:00:00 | 00:00:00 | |
| LZ4TU-5 | 2026-09-04 19:02:07 | 43.70956 | 22.61642 | 194° | 55km/h | 4083m | -13.2m/s | 1.3°C | 46.7% | 0hPa | 5.5V | 00:00:00 | 00:00:00 | 00:00:00 | |
| LZ4TU-5 | 2026-09-04 19:02:03 | 43.71011 | 22.61659 | 193° | 57km/h | 4139m | -13.6m/s | 1.0°C | 44.1% | 0hPa | 5.5V | 00:00:00 | 00:00:00 | 00:00:00 | |
| LZ4TU-5 | 2026-09-04 19:01:58 | 43.71082 | 22.61680 | 193° | 58km/h | 4209m | -12.9m/s | 0.5°C | 44.1% | 0hPa | 5.5V | 00:00:00 | 00:00:00 | 00:00:00 | |
| LZ4TU-5 | 2026-09-04 19:01:53 | 43.71153 | 22.61702 | 195° | 57km/h | 4279m | -13.7m/s | 0.1°C | 44.7% | 0hPa | 5.5V | 00:00:00 | 00:00:00 | 00:00:00 | |
| LZ4TU-5 | 2026-09-04 19:01:48 | 43.71221 | 22.61724 | 191° | 53km/h | 4350m | -12.6m/s | -0.3°C | 46.0% | 0hPa | 5.5V | 00:00:00 | 00:00:00 | 00:00:00 | |
| LZ4TU-5 | 2026-09-04 19:01:43 | 43.71290 | 22.61737 | 188° | 55km/h | 4416m | -13.6m/s | -0.5°C | 44.9% | 0hPa | 5.5V | 00:00:00 | 00:00:00 | 00:00:00 | |
| LZ4TU-5 | 2026-09-04 19:01:39 | 43.71345 | 22.61744 | 185° | 55km/h | 4463m | -13.9m/s | -0.6°C | 47.3% | 0hPa | 5.5V | 00:00:00 | 00:00:00 | 00:00:00 | |
| LZ4TU-5 | 2026-09-04 19:01:34 | 43.71413 | 22.61749 | 183° | 53km/h | 4534m | -14.2m/s | -1.1°C | 51.4% | 0hPa | 5.5V | 00:00:00 | 00:00:00 | 00:00:00 | |
| LZ4TU-5 | 2026-09-04 19:01:29 | 43.71481 | 22.61752 | 180° | 55km/h | 4605m | -13.6m/s | -1.5°C | 52.8% | 0hPa | 5.5V | 00:00:00 | 00:00:00 | 00:00:00 | |
| LZ4TU-5 | 2026-09-04 19:01:24 | 43.71551 | 22.61749 | 177° | 55km/h | 4675m | -13.4m/s | -1.9°C | 0% | 0hPa | 5.5V | 00:00:00 | 00:00:00 | 00:00:00 | |
| LZ4TU-5 | 2026-09-04 19:00:22 | 43.72397 | 22.61779 | 182° | 49km/h | 5561m | -14.8m/s | -4.3°C | 44.8% | 0hPa | 5.5V | 00:00:00 | 00:00:00 | 00:00:00 | |
| LZ4TU-5 | 2026-09-04 19:00:18 | 43.72448 | 22.61781 | 184° | 51km/h | 5621m | -15.5m/s | -4.6°C | 44.4% | 0hPa | 5.5V | 00:00:00 | 00:00:00 | 00:00:00 | |
| LZ4TU-5 | 2026-09-04 18:59:14 | 43.73342 | 22.61703 | 175° | 55km/h | 6485m | -12.8m/s | -11.1°C | 44.1% | 0hPa | 5.5V | 00:00:00 | 00:00:00 | 00:00:00 | |
| LZ4TU-5 | 2026-09-04 18:59:09 | 43.73408 | 22.61696 | 179° | 51km/h | 6553m | -14.0m/s | -11.5°C | 43.9% | 0hPa | 5.5V | 00:00:00 | 00:00:00 | 00:00:00 | |
| LZ4TU-5 | 2026-09-04 18:58:04 | 43.74277 | 22.61763 | 177° | 57km/h | 7394m | -13.8m/s | -18.1°C | 51.4% | 0hPa | 5.5V | 00:00:00 | 00:00:00 | 00:00:00 | |
| LZ4TU-5 | 2026-09-04 18:57:59 | 43.74351 | 22.61756 | 177° | 58km/h | 7463m | -12.3m/s | -18.5°C | 52.3% | 0hPa | 5.5V | 00:00:00 | 00:00:00 | 00:00:00 | |
| LZ4TU-5 | 2026-09-04 18:56:57 | 43.75152 | 22.61658 | 175° | 53km/h | 8256m | -12.6m/s | -24.4°C | 52.8% | 0hPa | 5.5V | 00:00:00 | 00:00:00 | 00:00:00 | |
| LZ4TU-5 | 2026-09-04 18:56:52 | 43.75217 | 22.61652 | 177° | 51km/h | 8314m | -12.5m/s | -24.9°C | 54.5% | 0hPa | 5.5V | 00:00:00 | 00:00:00 | 00:00:00 | |
| LZ4TU-5 | 2026-09-04 18:56:47 | 43.75286 | 22.61645 | 177° | 55km/h | 8387m | -14.4m/s | -25.4°C | 55.6% | 0hPa | 5.5V | 00:00:00 | 00:00:00 | 00:00:00 | |
| LZ4TU-5 | 2026-09-04 18:56:42 | 43.75357 | 22.61640 | 177° | 55km/h | 8457m | -14.6m/s | -26.0°C | 56.6% | 0hPa | 5.5V | 00:00:00 | 00:00:00 | 00:00:00 | |
| LZ4TU-5 | 2026-09-04 18:56:37 | 43.75428 | 22.61634 | 176° | 55km/h | 8530m | -13.7m/s | -26.6°C | 57.2% | 0hPa | 5.5V | 00:00:00 | 00:00:00 | 00:00:00 | |
| LZ4TU-5 | 2026-09-04 18:55:36 | 43.76378 | 22.61514 | 180° | 66km/h | 9360m | -14.0m/s | -33.1°C | 48.1% | 0hPa | 5.5V | 00:00:00 | 00:00:00 | 00:00:00 | |
| LZ4TU-5 | 2026-09-04 18:55:31 | 43.76463 | 22.61510 | 179° | 69km/h | 9434m | -15.4m/s | -33.6°C | 47.1% | 0hPa | 5.5V | 00:00:00 | 00:00:00 | 00:00:00 | |
| LZ4TU-5 | 2026-09-04 18:54:19 | 43.77839 | 22.61594 | 187° | 80km/h | 10470m | -14.4m/s | -42.9°C | 60.0% | 0hPa | 5.5V | 00:00:00 | 00:00:00 | 00:00:00 | |
| LZ4TU-5 | 2026-09-04 18:54:15 | 43.77922 | 22.61608 | 187° | 80km/h | 10531m | -14.3m/s | -43.3°C | 60.7% | 0hPa | 5.5V | 00:00:00 | 00:00:00 | 00:00:00 | |
| LZ4TU-5 | 2026-09-04 18:52:39 | 43.80141 | 22.61951 | 182° | 99km/h | 12021m | -16.7m/s | -56.0°C | 42.2% | 0hPa | 5.5V | 00:00:00 | 00:00:00 | 00:00:00 | |
| LZ4TU-5 | 2026-09-04 18:52:34 | 43.80268 | 22.61960 | 185° | 97km/h | 12108m | -16.1m/s | -56.5°C | 0% | 0hPa | 5.5V | 00:00:00 | 00:00:00 | 00:00:00 | |
| LZ4TU-5 | 2026-09-04 18:52:29 | 43.80395 | 22.61968 | 183° | 102km/h | 12188m | -18.0m/s | -57.3°C | 35.9% | 0hPa | 5.5V | 00:00:00 | 00:00:00 | 00:00:00 | |
| LZ4TU-5 | 2026-09-04 18:52:24 | 43.80524 | 22.61980 | 187° | 100km/h | 12278m | -17.1m/s | -58.1°C | 33.1% | 0hPa | 5.5V | 00:00:00 | 00:00:00 | 00:00:00 | |
| LZ4TU-5 | 2026-09-04 18:52:19 | 43.80649 | 22.61992 | 183° | 108km/h | 12368m | -18.2m/s | -58.8°C | 30.1% | 0hPa | 5.5V | 00:00:00 | 00:00:00 | 00:00:00 | |
| LZ4TU-5 | 2026-09-04 18:51:11 | 43.82251 | 22.62227 | 180° | 58km/h | 13624m | -19.3m/s | -61.4°C | 1.1% | 0hPa | 5.5V | 00:00:00 | 00:00:00 | 00:00:00 | |
| LZ4TU-5 | 2026-09-04 18:51:06 | 43.82327 | 22.62217 | 170° | 64km/h | 13718m | -19.5m/s | -62.0°C | 0.1% | 0hPa | 5.5V | 00:00:00 | 00:00:00 | 00:00:00 | |
| LZ4TU-5 | 2026-09-04 18:49:59 | 43.83142 | 22.61873 | 151° | 40km/h | 15054m | -19.2m/s | -58.1°C | 0.0% | 0hPa | 5.5V | 00:00:00 | 00:00:00 | 00:00:00 | |
| LZ4TU-5 | 2026-09-04 18:49:55 | 43.83178 | 22.61849 | 163° | 37km/h | 15129m | -19.9m/s | -58.1°C | 0.0% | 0hPa | 5.5V | 00:00:00 | 00:00:00 | 00:00:00 | |
| LZ4TU-5 | 2026-09-04 18:48:41 | 43.83463 | 22.61285 | 126° | 38km/h | 16741m | -23.9m/s | -59.2°C | 0.0% | 0hPa | 5.5V | 00:00:00 | 00:00:00 | 00:00:00 | |
| LZ4TU-5 | 2026-09-04 18:48:36 | 43.83487 | 22.61224 | 115° | 42km/h | 16860m | -22.9m/s | -59.0°C | 0% | 0hPa | 5.5V | 00:00:00 | 00:00:00 | 00:00:00 | |
| LZ4TU-5 | 2026-09-04 18:47:19 | 43.83638 | 22.60833 | 88° | 13km/h | 18561m | -23.2m/s | -56.3°C | 0.0% | 0hPa | 5.5V | 00:00:00 | 00:00:00 | 00:00:00 | |
| LZ4TU-5 | 2026-09-04 18:47:14 | 43.83640 | 22.60800 | 99° | 22km/h | 18671m | -21.3m/s | -56.7°C | 0.0% | 0hPa | 5.5V | 00:00:00 | 00:00:00 | 00:00:00 | |
| LZ4TU-5 | 2026-09-04 18:45:55 | 43.83644 | 22.60641 | 48° | 24km/h | 20468m | -24.1m/s | -58.4°C | 0.0% | 0hPa | 5.5V | 00:00:00 | 00:00:00 | 00:00:00 | |
| LZ4TU-5 | 2026-09-04 18:45:50 | 43.83627 | 22.60601 | 81° | 26km/h | 20587m | -24.9m/s | -58.0°C | 0.0% | 0hPa | 5.5V | 00:00:00 | 00:00:00 | 00:00:00 | |
| LZ4TU-5 | 2026-09-04 18:44:39 | 43.83642 | 22.60407 | 159° | 20km/h | 22174m | -23.1m/s | -55.4°C | 0.0% | 0hPa | 5.5V | 00:00:00 | 00:00:00 | 00:00:00 | |
| LZ4TU-5 | 2026-09-04 18:44:34 | 43.83665 | 22.60398 | 170° | 18km/h | 22289m | -22.7m/s | -55.5°C | 0.0% | 0hPa | 5.5V | 00:00:00 | 00:00:00 | 00:00:00 | |
| LZ4TU-5 | 2026-09-04 18:43:09 | 43.83748 | 22.60431 | 189° | 11km/h | 24245m | -33.1m/s | -51.4°C | 0.0% | 0hPa | 5.5V | 00:00:00 | 00:00:00 | 00:00:00 | |
| LZ4TU-5 | 2026-09-04 18:43:04 | 43.83761 | 22.60429 | 171° | 15km/h | 24413m | -33.2m/s | -51.5°C | 0.0% | 0hPa | 5.5V | 00:00:00 | 00:00:00 | 00:00:00 | |
| LZ4TU-5 | 2026-09-04 18:41:46 | 43.83793 | 22.60657 | 292° | 2km/h | 26826m | -38.0m/s | -46.7°C | 0.0% | 0hPa | 5.5V | 00:00:00 | 00:00:00 | 00:00:00 | |
| LZ4TU-5 | 2026-09-04 18:41:42 | 43.83793 | 22.60658 | 108° | 5km/h | 26972m | -36.2m/s | -46.7°C | 0.0% | 0hPa | 5.5V | 00:00:00 | 00:00:00 | 00:00:00 | |
| LZ4TU-5 | 2026-09-04 18:39:56 | 43.83649 | 22.60854 | 164° | 27km/h | 30689m | 7.6m/s | -44.0°C | 0.0% | 0hPa | 5.5V | 00:00:00 | 00:00:00 | 00:00:00 | |
| LZ4TU-5 | 2026-09-04 18:39:52 | 43.83678 | 22.60843 | 142° | 20km/h | 30659m | 7.7m/s | -43.6°C | 0% | 0hPa | 5.5V | 00:00:00 | 00:00:00 | 00:00:00 | |
| OE3JTB-15 | 2026-09-04 18:39:36 | 43.83706 | 22.60774 | 38° | 16km/h | 30516m | 6.8m/s | -42.7°C | 0% | 0hPa | 5.5V | 00:00:00 | 00:00:00 | 00:00:00 | |
| OE3JTB-15 | 2026-09-04 18:39:07 | 43.83601 | 22.60742 | 2° | 20km/h | 30318m | 7.0m/s | -43.6°C | 0% | 0hPa | 5.5V | 00:00:00 | 00:00:00 | 00:00:00 | |
| OM5KV | 2026-09-04 18:38:56 | 43.83540 | 22.60730 | 342° | 11km/h | 30238m | 6.5m/s | -43.9°C | 0.0% | 0hPa | 5.5V | 00:00:00 | 00:00:00 | 00:00:00 | |
| OM5KV | 2026-09-04 18:38:48 | 43.83492 | 22.60732 | 355° | 18km/h | 30181m | 6.3m/s | -44.0°C | 0.0% | 0hPa | 5.5V | 00:00:00 | 00:00:00 | 00:00:00 | |
| OE3JTB-15 | 2026-09-04 18:38:27 | 43.83406 | 22.60773 | 316° | 18km/h | 30041m | 6.3m/s | -44.0°C | 0% | 0hPa | 5.5V | 00:00:00 | 00:00:00 | 00:00:00 | |
| LZ4TU-5 | 2026-09-04 18:38:17 | 43.83361 | 22.60826 | 298° | 38km/h | 29976m | 6.4m/s | -44.7°C | 0.0% | 0hPa | 0V | 00:00:00 | 00:00:00 | 00:00:00 | |
| LZ4TU-5 | 2026-09-04 18:38:12 | 43.83335 | 22.60873 | 343° | 16km/h | 29944m | 6.5m/s | -44.7°C | 57.5% | 0hPa | 0V | 00:00:00 | 00:00:00 | 00:00:00 | |
| OM5KV | 2026-09-04 18:38:00 | 43.83305 | 22.60918 | 361° | 7km/h | 29865m | 6.9m/s | -44.7°C | 0.0% | 0hPa | 0V | 00:00:00 | 00:00:00 | 00:00:00 | |
| OM5KV | 2026-09-04 18:37:53 | 43.83295 | 22.60940 | 301° | 24km/h | 29816m | 6.7m/s | -44.7°C | 0.0% | 0hPa | 0V | 00:00:00 | 00:00:00 | 00:00:00 | |
| OM5KV | 2026-09-04 18:37:44 | 43.83276 | 22.60934 | 334° | 18km/h | 29758m | 6.9m/s | -44.7°C | 0.0% | 0hPa | 0V | 00:00:00 | 00:00:00 | 00:00:00 | |
| OM5KV | 2026-09-04 18:37:40 | 43.83263 | 22.60950 | 341° | 20km/h | 29732m | 6.2m/s | -44.8°C | 0.0% | 0hPa | 0V | 00:00:00 | 00:00:00 | 00:00:00 | |
| OM5KV | 2026-09-04 18:37:31 | 43.83236 | 22.60963 | 311° | 31km/h | 29674m | 7.1m/s | -45.2°C | 0.0% | 0hPa | 0V | 00:00:00 | 00:00:00 | 00:00:00 | |
| OM5KV | 2026-09-04 18:37:25 | 43.83201 | 22.60976 | 25° | 22km/h | 29634m | 6.3m/s | -45.4°C | 0.0% | 0hPa | 0V | 00:00:00 | 00:00:00 | 00:00:00 | |
| OM5KV | 2026-09-04 18:37:20 | 43.83179 | 22.60975 | 331° | 29km/h | 29600m | 7.0m/s | -45.4°C | 0.0% | 0hPa | 0V | 00:00:00 | 00:00:00 | 00:00:00 | |
| OM5KV | 2026-09-04 18:37:13 | 43.83154 | 22.60988 | 24° | 16km/h | 29552m | 7.9m/s | -45.3°C | 0.0% | 0hPa | 0V | 00:00:00 | 00:00:00 | 00:00:00 | |
| OM5KV | 2026-09-04 18:37:09 | 43.83134 | 22.60986 | 353° | 15km/h | 29521m | 7.7m/s | -45.4°C | 0.0% | 0hPa | 0V | 00:00:00 | 00:00:00 | 00:00:00 | |
| OM5KV | 2026-09-04 18:37:02 | 43.83119 | 22.60988 | 113° | 20km/h | 29468m | 8.1m/s | -45.3°C | 0.0% | 0hPa | 0V | 00:00:00 | 00:00:00 | 00:00:00 | |
| OM5KV | 2026-09-04 18:37:01 | 43.83121 | 22.60982 | 114° | 15km/h | 29460m | 8.3m/s | -45.3°C | 0.0% | 0hPa | 0V | 00:00:00 | 00:00:00 | 00:00:00 | |
| OM5KV | 2026-09-04 18:36:55 | 43.83101 | 22.60984 | 326° | 15km/h | 29411m | 7.0m/s | -45.0°C | 0.0% | 0hPa | 0V | 00:00:00 | 00:00:00 | 00:00:00 | |
| LZ4TU-5 | 2026-09-04 18:36:53 | 43.83097 | 22.60988 | 318° | 15km/h | 29397m | 6.6m/s | -45.0°C | 0.0% | 0hPa | 0V | 00:00:00 | 00:00:00 | 00:00:00 | |
| OM5KV | 2026-09-04 18:36:50 | 43.83092 | 22.60987 | 47° | 9km/h | 29376m | 6.6m/s | -44.9°C | 0.0% | 0hPa | 0V | 00:00:00 | 00:00:00 | 00:00:00 | |
| OM5KV | 2026-09-04 18:36:49 | 43.83090 | 22.60985 | 38° | 5km/h | 29370m | 6.7m/s | -44.9°C | 0.0% | 0hPa | 0V | 00:00:00 | 00:00:00 | 00:00:00 | |
| LZ4TU-5 | 2026-09-04 18:36:48 | 43.83089 | 22.60984 | 0° | 0km/h | 29362m | 6.7m/s | -44.9°C | 0.0% | 0hPa | 0V | 00:00:00 | 00:00:00 | 00:00:00 | |
| OM5KV | 2026-09-04 18:36:45 | 43.83076 | 22.60994 | 332° | 24km/h | 29342m | 6.8m/s | -44.8°C | 0.0% | 0hPa | 0V | 00:00:00 | 00:00:00 | 00:00:00 | |
| OM5KV | 2026-09-04 18:36:44 | 43.83071 | 22.60997 | 339° | 16km/h | 29334m | 6.7m/s | -44.8°C | 0.0% | 0hPa | 0V | 00:00:00 | 00:00:00 | 00:00:00 | |
| OM5KV | 2026-09-04 18:36:34 | 43.83057 | 22.61010 | 294° | 16km/h | 29263m | 6.3m/s | -44.4°C | 0.0% | 0hPa | 0V | 00:00:00 | 00:00:00 | 00:00:00 | |
| OM5KV | 2026-09-04 18:36:28 | 43.83042 | 22.61027 | 49° | 11km/h | 29222m | 6.6m/s | -44.3°C | 0.0% | 0hPa | 0V | 00:00:00 | 00:00:00 | 00:00:00 | |
| OM5KV | 2026-09-04 18:36:27 | 43.83040 | 22.61024 | 73° | 7km/h | 29216m | 6.8m/s | -44.3°C | 0.0% | 0hPa | 0V | 00:00:00 | 00:00:00 | 00:00:00 | |
| OM5KV | 2026-09-04 18:36:22 | 43.83043 | 22.61036 | 242° | 15km/h | 29179m | 7.0m/s | -44.4°C | 0.0% | 0hPa | 0V | 00:00:00 | 00:00:00 | 00:00:00 | |
| OM5KV | 2026-09-04 18:36:17 | 43.83043 | 22.61046 | 6° | 9km/h | 29141m | 6.4m/s | -44.5°C | 0.0% | 0hPa | 0V | 00:00:00 | 00:00:00 | 00:00:00 | |
| OM5KV | 2026-09-04 18:36:16 | 43.83040 | 22.61045 | 0° | 0km/h | 29135m | 6.7m/s | -44.5°C | 0.0% | 0hPa | 0V | 00:00:00 | 00:00:00 | 00:00:00 | |
| OM5KV | 2026-09-04 18:36:11 | 43.83048 | 22.61060 | 244° | 20km/h | 29100m | 6.5m/s | -44.6°C | 0.0% | 0hPa | 0V | 00:00:00 | 00:00:00 | 00:00:00 | |
| OM5KV | 2026-09-04 18:36:10 | 43.83051 | 22.61066 | 250° | 16km/h | 29093m | 6.5m/s | -44.5°C | 0.0% | 0hPa | 0V | 00:00:00 | 00:00:00 | 00:00:00 | |
| OM5KV | 2026-09-04 18:36:05 | 43.83059 | 22.61069 | 202° | 7km/h | 29060m | 7.2m/s | -44.6°C | 0.0% | 0hPa | 0V | 00:00:00 | 00:00:00 | 00:00:00 | |
| OM5KV | 2026-09-04 18:36:04 | 43.83060 | 22.61069 | 239° | 7km/h | 29052m | 6.9m/s | -44.7°C | 0.0% | 0hPa | 0V | 00:00:00 | 00:00:00 | 00:00:00 | |
| OM5KV | 2026-09-04 18:35:59 | 43.83071 | 22.61090 | 227° | 18km/h | 29016m | 6.9m/s | -44.8°C | 0.0% | 0hPa | 0V | 00:00:00 | 00:00:00 | 00:00:00 | |
| OM5KV | 2026-09-04 18:35:58 | 43.83074 | 22.61095 | 235° | 20km/h | 29009m | 6.8m/s | -44.8°C | 0.0% | 0hPa | 0V | 00:00:00 | 00:00:00 | 00:00:00 | |
| OM5KV | 2026-09-04 18:35:53 | 43.83080 | 22.61097 | 56° | 5km/h | 28974m | 6.9m/s | -44.9°C | 0.0% | 0hPa | 0V | 00:00:00 | 00:00:00 | 00:00:00 | |
| OM5KV | 2026-09-04 18:35:52 | 43.83078 | 22.61096 | 100° | 4km/h | 28967m | 6.9m/s | -44.9°C | 0.0% | 0hPa | 0V | 00:00:00 | 00:00:00 | 00:00:00 | |
| OM5KV | 2026-09-04 18:35:47 | 43.83097 | 22.61087 | 154° | 24km/h | 28931m | 6.8m/s | -45.0°C | 0.0% | 0hPa | 0V | 00:00:00 | 00:00:00 | 00:00:00 | |
| OM5KV | 2026-09-04 18:35:46 | 43.83103 | 22.61083 | 151° | 24km/h | 28925m | 7.0m/s | -45.1°C | 0.0% | 0hPa | 0V | 00:00:00 | 00:00:00 | 00:00:00 | |
| OM5KV | 2026-09-04 18:35:45 | 43.83108 | 22.61079 | 165° | 13km/h | 28917m | 7.0m/s | -45.1°C | 0.0% | 0hPa | 0V | 00:00:00 | 00:00:00 | 00:00:00 | |
| OM5KV | 2026-09-04 18:35:41 | 43.83117 | 22.61074 | 122° | 9km/h | 28890m | 7.1m/s | -45.1°C | 0.0% | 0hPa | 0V | 00:00:00 | 00:00:00 | 00:00:00 | |
| OM5KV | 2026-09-04 18:35:40 | 43.83118 | 22.61071 | 125° | 11km/h | 28883m | 6.9m/s | -45.1°C | 0.0% | 0hPa | 0V | 00:00:00 | 00:00:00 | 00:00:00 | |
| LZ4TU-5 | 2026-09-04 18:35:31 | 43.83127 | 22.61049 | 16° | 4km/h | 28820m | 6.7m/s | -44.8°C | 0.0% | 0hPa | 0V | 00:00:00 | 00:00:00 | 00:00:00 | |
| OM5KV | 2026-09-04 18:35:30 | 43.83126 | 22.61048 | 259° | 9km/h | 28814m | 6.8m/s | -44.8°C | 0.0% | 0hPa | 0V | 00:00:00 | 00:00:00 | 00:00:00 | |
| LZ4TU-5 | 2026-09-04 18:35:27 | 43.83129 | 22.61057 | 185° | 5km/h | 28795m | 6.9m/s | -44.8°C | 0.0% | 0hPa | 0V | 00:00:00 | 00:00:00 | 00:00:00 | |
| OM5KV | 2026-09-04 18:35:25 | 43.83132 | 22.61054 | 100° | 13km/h | 28783m | 7.8m/s | -44.7°C | 0.0% | 0hPa | 0V | 00:00:00 | 00:00:00 | 00:00:00 | |
| OM5KV | 2026-09-04 18:35:22 | 43.83133 | 22.61034 | 81° | 9km/h | 28759m | 7.1m/s | -44.6°C | 0.0% | 0hPa | 0V | 00:00:00 | 00:00:00 | 00:00:00 | |
| OM5KV | 2026-09-04 18:35:19 | 43.83131 | 22.61031 | 225° | 9km/h | 28737m | 7.2m/s | -44.5°C | 0.0% | 0hPa | 0V | 00:00:00 | 00:00:00 | 00:00:00 | |
| OM5KV | 2026-09-04 18:35:13 | 43.83133 | 22.61042 | 66° | 16km/h | 28698m | 8.0m/s | -44.3°C | 0.0% | 0hPa | 0V | 00:00:00 | 00:00:00 | 00:00:00 | |
| OM5KV | 2026-09-04 18:35:01 | 43.83113 | 22.61044 | 105° | 13km/h | 28609m | 7.2m/s | -44.7°C | 0.0% | 0hPa | 0V | 00:00:00 | 00:00:00 | 00:00:00 | |
| OM5KV | 2026-09-04 18:34:54 | 43.83108 | 22.61033 | 279° | 9km/h | 28554m | 7.2m/s | -44.8°C | 0.0% | 0hPa | 0V | 00:00:00 | 00:00:00 | 00:00:00 | |
| OM5KV | 2026-09-04 18:34:43 | 43.83105 | 22.61047 | 313° | 33km/h | 28470m | 6.8m/s | -45.0°C | 0.0% | 0hPa | 0V | 00:00:00 | 00:00:00 | 00:00:00 | |
| OM5KV | 2026-09-04 18:34:32 | 43.83076 | 22.61098 | 314° | 16km/h | 28399m | 6.7m/s | -45.0°C | 0.0% | 0hPa | 0V | 00:00:00 | 00:00:00 | 00:00:00 | |
| OM5KV | 2026-09-04 18:34:27 | 43.83052 | 22.61127 | 230° | 20km/h | 28366m | 6.4m/s | -45.0°C | 0.0% | 0hPa | 0V | 00:00:00 | 00:00:00 | 00:00:00 | |
| OM5KV | 2026-09-04 18:34:21 | 43.83089 | 22.61126 | 258° | 11km/h | 28324m | 6.7m/s | -44.9°C | 0.0% | 0hPa | 0V | 00:00:00 | 00:00:00 | 00:00:00 | |
| LZ4TU-5 | 2026-09-04 18:34:11 | 43.83124 | 22.61161 | 215° | 20km/h | 28259m | 6.3m/s | -44.9°C | 0.0% | 0hPa | 0V | 00:00:00 | 00:00:00 | 00:00:00 | |
| OM5KV | 2026-09-04 18:34:09 | 43.83136 | 22.61171 | 263° | 26km/h | 28247m | 6.8m/s | -44.9°C | 0.0% | 0hPa | 0V | 00:00:00 | 00:00:00 | 00:00:00 | |
| LZ4TU-5 | 2026-09-04 18:34:06 | 43.83139 | 22.61197 | 277° | 26km/h | 28229m | 7.1m/s | -45.0°C | 0.0% | 0hPa | 0V | 00:00:00 | 00:00:00 | 00:00:00 | |
| OM5KV | 2026-09-04 18:33:54 | 43.83200 | 22.61202 | 136° | 5km/h | 28146m | 7.4m/s | -45.2°C | 0.0% | 0hPa | 0V | 00:00:00 | 00:00:00 | 00:00:00 | |
| OM5KV | 2026-09-04 18:33:52 | 43.83206 | 22.61199 | 147° | 20km/h | 28131m | 6.5m/s | -45.3°C | 0.0% | 0hPa | 0V | 00:00:00 | 00:00:00 | 00:00:00 | |
| OM5KV | 2026-09-04 18:33:48 | 43.83240 | 22.61175 | 216° | 11km/h | 28102m | 7.6m/s | -45.6°C | 0.0% | 0hPa | 0V | 00:00:00 | 00:00:00 | 00:00:00 | |
| OM5KV | 2026-09-04 18:33:46 | 43.83242 | 22.61180 | 334° | 26km/h | 28088m | 7.8m/s | -45.7°C | 0.0% | 0hPa | 0V | 00:00:00 | 00:00:00 | 00:00:00 | |
| OM5KV | 2026-09-04 18:33:42 | 43.83229 | 22.61184 | 50° | 13km/h | 28051m | 6.3m/s | -45.7°C | 0.0% | 0hPa | 0V | 00:00:00 | 00:00:00 | 00:00:00 | |
| OM5KV | 2026-09-04 18:33:37 | 43.83242 | 22.61156 | 184° | 31km/h | 28018m | 6.0m/s | -45.8°C | 0.0% | 0hPa | 0V | 00:00:00 | 00:00:00 | 00:00:00 | |
| OM5KV | 2026-09-04 18:33:32 | 43.83264 | 22.61149 | 91° | 9km/h | 27986m | 5.4m/s | -45.7°C | 0.0% | 0hPa | 0V | 00:00:00 | 00:00:00 | 00:00:00 | |
| OM5KV | 2026-09-04 18:33:31 | 43.83260 | 22.61144 | 45° | 11km/h | 27977m | 5.2m/s | -45.7°C | 0.0% | 0hPa | 0V | 00:00:00 | 00:00:00 | 00:00:00 | |
| OM5KV | 2026-09-04 18:33:26 | 43.83258 | 22.61130 | 203° | 33km/h | 27945m | 4.2m/s | -45.7°C | 0.0% | 0hPa | 0V | 00:00:00 | 00:00:00 | 00:00:00 | |
| OM5KV | 2026-09-04 18:33:21 | 43.83295 | 22.61150 | 144° | 9km/h | 27928m | 6.8m/s | -45.8°C | 0.0% | 0hPa | 0V | 00:00:00 | 00:00:00 | 00:00:00 | |
| OM5KV | 2026-09-04 18:33:20 | 43.83297 | 22.61147 | 53° | 15km/h | 27918m | 6.4m/s | -45.8°C | 0.0% | 0hPa | 0V | 00:00:00 | 00:00:00 | 00:00:00 | |
| OM5KV | 2026-09-04 18:33:15 | 43.83280 | 22.61134 | 197° | 15km/h | 27882m | 6.2m/s | -45.7°C | 0.0% | 0hPa | 0V | 00:00:00 | 00:00:00 | 00:00:00 | |
| OM5KV | 2026-09-04 18:33:14 | 43.83284 | 22.61136 | 190° | 20km/h | 27875m | 6.2m/s | -45.7°C | 0.0% | 0hPa | 0V | 00:00:00 | 00:00:00 | 00:00:00 | |
| OM5KV | 2026-09-04 18:33:10 | 43.83305 | 22.61134 | 32° | 13km/h | 27849m | 5.6m/s | -45.7°C | 0.0% | 0hPa | 0V | 00:00:00 | 00:00:00 | 00:00:00 | |
| OM5KV | 2026-09-04 18:32:59 | 43.83322 | 22.61146 | 185° | 18km/h | 27781m | 5.2m/s | -46.0°C | 0.0% | 0hPa | 0V | 00:00:00 | 00:00:00 | 00:00:00 | |
| OM5KV | 2026-09-04 18:32:57 | 43.83332 | 22.61143 | 141° | 11km/h | 27773m | 7.3m/s | -46.2°C | 0.0% | 0hPa | 0V | 00:00:00 | 00:00:00 | 00:00:00 | |
| OM5KV | 2026-09-04 18:32:53 | 43.83320 | 22.61139 | 156° | 4km/h | 27744m | 6.5m/s | -46.4°C | 0.0% | 0hPa | 0V | 00:00:00 | 00:00:00 | 00:00:00 | |
| LZ4TU-5 | 2026-09-04 18:32:52 | 43.83321 | 22.61138 | 156° | 11km/h | 27737m | 6.6m/s | -46.4°C | 0.0% | 0hPa | 0V | 00:00:00 | 00:00:00 | 00:00:00 | |
| OM5KV | 2026-09-04 18:32:48 | 43.83342 | 22.61138 | 66° | 5km/h | 27711m | 6.1m/s | -46.6°C | 0.0% | 0hPa | 0V | 00:00:00 | 00:00:00 | 00:00:00 | |
| LZ4TU-5 | 2026-09-04 18:32:47 | 43.83344 | 22.61137 | 132° | 13km/h | 27704m | 6.4m/s | -46.6°C | 0.0% | 0hPa | 0V | 00:00:00 | 00:00:00 | 00:00:00 | |
| OM5KV | 2026-09-04 18:32:45 | 43.83348 | 22.61128 | 99° | 15km/h | 27692m | 6.6m/s | -46.6°C | 0.0% | 0hPa | 0V | 00:00:00 | 00:00:00 | 00:00:00 | |
| OM5KV | 2026-09-04 18:32:42 | 43.83347 | 22.61118 | 308° | 5km/h | 27671m | 6.5m/s | -46.8°C | 0.0% | 0hPa | 0V | 00:00:00 | 00:00:00 | 00:00:00 | |
| OM5KV | 2026-09-04 18:32:39 | 43.83348 | 22.61128 | 206° | 16km/h | 27651m | 7.0m/s | -47.1°C | 0.0% | 0hPa | 0V | 00:00:00 | 00:00:00 | 00:00:00 | |
| OM5KV | 2026-09-04 18:32:33 | 43.83364 | 22.61114 | 111° | 5km/h | 27609m | 6.1m/s | -47.4°C | 0.0% | 0hPa | 0V | 00:00:00 | 00:00:00 | 00:00:00 | |
| OM5KV | 2026-09-04 18:32:31 | 43.83365 | 22.61111 | 102° | 4km/h | 27597m | 6.8m/s | -47.4°C | 0.0% | 0hPa | 0V | 00:00:00 | 00:00:00 | 00:00:00 | |
| OM5KV | 2026-09-04 18:32:20 | 43.83375 | 22.61103 | 309° | 2km/h | 27522m | 5.9m/s | -47.4°C | 0.0% | 0hPa | 0V | 00:00:00 | 00:00:00 | 00:00:00 | |
| OM5KV | 2026-09-04 18:32:10 | 43.83382 | 22.61102 | 106° | 4km/h | 27461m | 6.5m/s | -47.4°C | 0.0% | 0hPa | 0V | 00:00:00 | 00:00:00 | 00:00:00 | |
| OM5KV | 2026-09-04 18:32:04 | 43.83385 | 22.61098 | 283° | 15km/h | 27422m | 6.8m/s | -47.6°C | 0.0% | 0hPa | 0V | 00:00:00 | 00:00:00 | 00:00:00 | |
| OM5KV | 2026-09-04 18:31:57 | 43.83389 | 22.61124 | 283° | 5km/h | 27377m | 6.8m/s | -47.6°C | 0.0% | 0hPa | 0V | 00:00:00 | 00:00:00 | 00:00:00 | |
| OM5KV | 2026-09-04 18:31:51 | 43.83398 | 22.61117 | 229° | 9km/h | 27336m | 7.2m/s | -47.6°C | 0.0% | 0hPa | 0V | 00:00:00 | 00:00:00 | 00:00:00 | |
| OM5KV | 2026-09-04 18:31:47 | 43.83406 | 22.61117 | 113° | 9km/h | 27308m | 7.1m/s | -47.6°C | 0.0% | 0hPa | 0V | 00:00:00 | 00:00:00 | 00:00:00 | |
| OM5KV | 2026-09-04 18:31:45 | 43.83412 | 22.61110 | 162° | 11km/h | 27293m | 7.4m/s | -47.6°C | 0.0% | 0hPa | 0V | 00:00:00 | 00:00:00 | 00:00:00 | |
| OM5KV | 2026-09-04 18:31:34 | 43.83437 | 22.61099 | 101° | 11km/h | 27215m | 6.7m/s | -47.6°C | 0.0% | 0hPa | 0V | 00:00:00 | 00:00:00 | 00:00:00 | |
| LZ4TU-5 | 2026-09-04 18:31:33 | 43.83437 | 22.61096 | 127° | 7km/h | 27208m | 6.5m/s | -47.6°C | 0.0% | 0hPa | 0V | 00:00:00 | 00:00:00 | 00:00:00 | |
| LZ4TU-5 | 2026-09-04 18:31:28 | 43.83435 | 22.61095 | 350° | 11km/h | 27177m | 6.8m/s | -47.5°C | 0% | 0hPa | 0V | 00:00:00 | 00:00:00 | 00:00:00 | |
| OM5KV | 2026-09-04 18:31:21 | 43.83437 | 22.61090 | 312° | 7km/h | 27127m | 5.9m/s | -47.4°C | 0.0% | 0hPa | 0V | 00:00:00 | 00:00:00 | 00:00:00 | |
| OM5KV | 2026-09-04 18:31:15 | 43.83416 | 22.61093 | 50° | 9km/h | 27086m | 6.4m/s | -47.3°C | 0.0% | 0hPa | 0V | 00:00:00 | 00:00:00 | 00:00:00 | |
| OM5KV | 2026-09-04 18:31:10 | 43.83422 | 22.61090 | 52° | 4km/h | 27050m | 6.7m/s | -47.2°C | 0.0% | 0hPa | 0V | 00:00:00 | 00:00:00 | 00:00:00 | |
| OM5KV | 2026-09-04 18:31:09 | 43.83423 | 22.61090 | 39° | 9km/h | 27043m | 6.7m/s | -47.2°C | 0.0% | 0hPa | 0V | 00:00:00 | 00:00:00 | 00:00:00 | |
| OM5KV | 2026-09-04 18:30:59 | 43.83403 | 22.61078 | 222° | 5km/h | 26972m | 6.3m/s | -47.1°C | 0.0% | 0hPa | 0V | 00:00:00 | 00:00:00 | 00:00:00 | |
| OM5KV | 2026-09-04 18:30:56 | 43.83402 | 22.61080 | 28° | 5km/h | 26954m | 6.7m/s | -47.1°C | 0.0% | 0hPa | 0V | 00:00:00 | 00:00:00 | 00:00:00 | |
| OM5KV | 2026-09-04 18:30:53 | 43.83396 | 22.61077 | 19° | 5km/h | 26934m | 6.7m/s | -47.0°C | 0.0% | 0hPa | 0V | 00:00:00 | 00:00:00 | 00:00:00 | |
| OM5KV | 2026-09-04 18:30:48 | 43.83393 | 22.61079 | 284° | 7km/h | 26901m | 6.7m/s | -47.1°C | 0.0% | 0hPa | 0V | 00:00:00 | 00:00:00 | 00:00:00 | |
| OM5KV | 2026-09-04 18:30:40 | 43.83374 | 22.61091 | 325° | 5km/h | 26852m | 7.0m/s | -47.3°C | 0.0% | 0hPa | 0V | 00:00:00 | 00:00:00 | 00:00:00 | |
| OM5KV | 2026-09-04 18:30:36 | 43.83371 | 22.61101 | 311° | 13km/h | 26825m | 7.0m/s | -47.4°C | 0.0% | 0hPa | 0V | 00:00:00 | 00:00:00 | 00:00:00 | |
| OM5KV | 2026-09-04 18:30:34 | 43.83366 | 22.61106 | 342° | 13km/h | 26810m | 6.9m/s | -47.5°C | 0.0% | 0hPa | 0V | 00:00:00 | 00:00:00 | 00:00:00 | |
| OM5KV | 2026-09-04 18:30:28 | 43.83349 | 22.61097 | 60° | 9km/h | 26769m | 7.0m/s | -47.5°C | 0.0% | 0hPa | 0V | 00:00:00 | 00:00:00 | 00:00:00 | |
| OM5KV | 2026-09-04 18:30:23 | 43.83340 | 22.61101 | 322° | 15km/h | 26736m | 7.0m/s | -47.4°C | 0.0% | 0hPa | 0V | 00:00:00 | 00:00:00 | 00:00:00 | |
| OM5KV | 2026-09-04 18:30:16 | 43.83313 | 22.61105 | 337° | 13km/h | 26687m | 7.1m/s | -47.3°C | 0.0% | 0hPa | 0V | 00:00:00 | 00:00:00 | 00:00:00 | |
| LZ4TU-5 | 2026-09-04 18:30:13 | 43.83304 | 22.61112 | 309° | 15km/h | 26665m | 7.3m/s | -47.3°C | 0.0% | 0hPa | 0V | 00:00:00 | 00:00:00 | 00:00:00 | |
| OM5KV | 2026-09-04 18:30:10 | 43.83297 | 22.61123 | 327° | 9km/h | 26643m | 7.2m/s | -47.2°C | 0.0% | 0hPa | 0V | 00:00:00 | 00:00:00 | 00:00:00 | |
| OM5KV | 2026-09-04 18:30:09 | 43.83294 | 22.61125 | 335° | 9km/h | 26636m | 7.3m/s | -47.2°C | 0.0% | 0hPa | 0V | 00:00:00 | 00:00:00 | 00:00:00 | |
| LZ4TU-5 | 2026-09-04 18:30:08 | 43.83292 | 22.61126 | 342° | 9km/h | 26629m | 7.1m/s | -47.2°C | 0.0% | 0hPa | 0V | 00:00:00 | 00:00:00 | 00:00:00 | |
| OM5KV | 2026-09-04 18:30:03 | 43.83281 | 22.61134 | 319° | 13km/h | 26593m | 7.3m/s | -47.4°C | 0.0% | 0hPa | 0V | 00:00:00 | 00:00:00 | 00:00:00 | |
| OM5KV | 2026-09-04 18:29:58 | 43.83267 | 22.61156 | 293° | 18km/h | 26556m | 7.6m/s | -47.9°C | 0.0% | 0hPa | 0V | 00:00:00 | 00:00:00 | 00:00:00 | |
| OM5KV | 2026-09-04 18:29:57 | 43.83266 | 22.61161 | 293° | 15km/h | 26547m | 7.6m/s | -48.0°C | 0.0% | 0hPa | 0V | 00:00:00 | 00:00:00 | 00:00:00 | |
| OM5KV | 2026-09-04 18:29:51 | 43.83260 | 22.61183 | 301° | 27km/h | 26498m | 7.3m/s | -48.6°C | 0.0% | 0hPa | 0V | 00:00:00 | 00:00:00 | 00:00:00 | |
| OM5KV | 2026-09-04 18:29:46 | 43.83243 | 22.61228 | 290° | 20km/h | 26462m | 7.3m/s | -48.6°C | 0.0% | 0hPa | 0V | 00:00:00 | 00:00:00 | 00:00:00 | |
| OM5KV | 2026-09-04 18:29:45 | 43.83243 | 22.61234 | 352° | 5km/h | 26455m | 7.2m/s | -48.5°C | 0.0% | 0hPa | 0V | 00:00:00 | 00:00:00 | 00:00:00 | |
| OM5KV | 2026-09-04 18:29:40 | 43.83240 | 22.61228 | 333° | 16km/h | 26418m | 7.1m/s | -48.5°C | 0.0% | 0hPa | 0V | 00:00:00 | 00:00:00 | 00:00:00 | |
| OM5KV | 2026-09-04 18:29:29 | 43.83210 | 22.61232 | 18° | 13km/h | 26339m | 6.9m/s | -48.4°C | 0.0% | 0hPa | 0V | 00:00:00 | 00:00:00 | 00:00:00 | |
| OM5KV | 2026-09-04 18:29:20 | 43.83186 | 22.61240 | 360° | 5km/h | 26279m | 6.8m/s | -48.2°C | 0.0% | 0hPa | 0V | 00:00:00 | 00:00:00 | 00:00:00 | |
| OM5KV | 2026-09-04 18:29:17 | 43.83180 | 22.61240 | 343° | 13km/h | 26257m | 6.6m/s | -48.1°C | 0.0% | 0hPa | 0V | 00:00:00 | 00:00:00 | 00:00:00 | |
| OM5KV | 2026-09-04 18:29:09 | 43.83153 | 22.61253 | 59° | 4km/h | 26200m | 6.5m/s | -47.9°C | 0.0% | 0hPa | 0V | 00:00:00 | 00:00:00 | 00:00:00 | |
| LZ4TU-5 | 2026-09-04 18:28:54 | 43.83139 | 22.61317 | 304° | 27km/h | 26103m | 6.3m/s | -48.0°C | 0.0% | 0hPa | 0V | 00:00:00 | 00:00:00 | 00:00:00 | |
| LZ4TU-5 | 2026-09-04 18:28:49 | 43.83125 | 22.61368 | 269° | 27km/h | 26070m | 6.3m/s | -48.1°C | 0.0% | 0hPa | 0V | 00:00:00 | 00:00:00 | 00:00:00 | |
| OM5KV | 2026-09-04 18:28:48 | 43.83125 | 22.61377 | 238° | 18km/h | 26063m | 6.4m/s | -48.0°C | 0.0% | 0hPa | 0V | 00:00:00 | 00:00:00 | 00:00:00 | |
| LZ4TU-5 | 2026-09-04 18:27:27 | 43.83042 | 22.61629 | 238° | 15km/h | 25539m | 5.9m/s | -50.5°C | 0.0% | 0hPa | 0V | 00:00:00 | 00:00:00 | 00:00:00 | |
| LZ4TU-5 | 2026-09-04 18:27:22 | 43.83050 | 22.61657 | 276° | 24km/h | 25511m | 6.4m/s | -50.4°C | 0% | 0hPa | 0V | 00:00:00 | 00:00:00 | 00:00:00 | |
| LZ4TU-5 | 2026-09-04 18:26:08 | 43.83234 | 22.62081 | 191° | 15km/h | 25010m | 6.3m/s | -50.9°C | 0.0% | 0hPa | 0V | 00:00:00 | 00:00:00 | 00:00:00 | |
| LZ4TU-5 | 2026-09-04 18:26:04 | 43.83243 | 22.62083 | 201° | 13km/h | 24984m | 6.3m/s | -50.9°C | 0.0% | 0hPa | 0V | 00:00:00 | 00:00:00 | 00:00:00 | |
| LZ4TU-5 | 2026-09-04 18:24:44 | 43.83527 | 22.62091 | 147° | 4km/h | 24450m | 6.1m/s | -52.1°C | 0.0% | 0hPa | 0V | 00:00:00 | 00:00:00 | 00:00:00 | |
| LZ4TU-5 | 2026-09-04 18:24:39 | 43.83537 | 22.62078 | 163° | 9km/h | 24418m | 5.9m/s | -52.1°C | 0.0% | 0hPa | 0V | 00:00:00 | 00:00:00 | 00:00:00 | |
| LZ4TU-5 | 2026-09-04 18:23:10 | 43.83741 | 22.62177 | 174° | 22km/h | 23832m | 5.3m/s | -52.9°C | 0.0% | 0hPa | 0V | 00:00:00 | 00:00:00 | 00:00:00 | |
| LZ4TU-5 | 2026-09-04 18:23:05 | 43.83757 | 22.62168 | 102° | 15km/h | 23808m | 5.3m/s | -52.8°C | 0% | 0hPa | 0V | 00:00:00 | 00:00:00 | 00:00:00 | |
| LZ4TU-5 | 2026-09-04 18:21:41 | 43.83830 | 22.62090 | 318° | 11km/h | 23293m | 6.1m/s | -53.5°C | 0.0% | 0hPa | 0V | 00:00:00 | 00:00:00 | 00:00:00 | |
| LZ4TU-5 | 2026-09-04 18:21:37 | 43.83823 | 22.62103 | 268° | 11km/h | 23267m | 6.2m/s | -53.5°C | 0.0% | 0hPa | 0V | 00:00:00 | 00:00:00 | 00:00:00 | |
| LZ4TU-5 | 2026-09-04 18:20:15 | 43.84018 | 22.62211 | 113° | 9km/h | 22746m | 6.2m/s | -53.7°C | 0.0% | 0hPa | 0V | 00:00:00 | 00:00:00 | 00:00:00 | |
| LZ4TU-5 | 2026-09-04 18:20:10 | 43.84018 | 22.62190 | 115° | 15km/h | 22716m | 6.0m/s | -53.8°C | 0.0% | 0hPa | 0V | 00:00:00 | 00:00:00 | 00:00:00 | |
| LZ4TU-5 | 2026-09-04 18:18:47 | 43.83968 | 22.62178 | 160° | 18km/h | 22202m | 5.9m/s | -55.6°C | 0.0% | 0hPa | 0V | 00:00:00 | 00:00:00 | 00:00:00 | |
| LZ4TU-5 | 2026-09-04 18:18:42 | 43.83997 | 22.62166 | 159° | 20km/h | 22170m | 5.5m/s | -55.6°C | 0% | 0hPa | 0V | 00:00:00 | 00:00:00 | 00:00:00 | |
| LZ4TU-5 | 2026-09-04 18:17:27 | 43.84047 | 22.61896 | 353° | 18km/h | 21715m | 6.0m/s | -54.9°C | 0.0% | 0hPa | 0V | 00:00:00 | 00:00:00 | 00:00:00 | |
| LZ4TU-5 | 2026-09-04 18:17:22 | 43.84023 | 22.61892 | 19° | 20km/h | 21683m | 5.9m/s | -54.7°C | 0.0% | 0hPa | 0V | 00:00:00 | 00:00:00 | 00:00:00 | |
| LZ4TU-5 | 2026-09-04 18:16:07 | 43.83927 | 22.61941 | 167° | 7km/h | 21219m | 5.6m/s | -55.6°C | 0.0% | 0hPa | 0V | 00:00:00 | 00:00:00 | 00:00:00 | |
| LZ4TU-5 | 2026-09-04 18:16:02 | 43.83932 | 22.61930 | 151° | 13km/h | 21187m | 5.7m/s | -55.5°C | 0.0% | 0hPa | 0V | 00:00:00 | 00:00:00 | 00:00:00 | |
| LZ4TU-5 | 2026-09-04 18:14:46 | 43.83998 | 22.61674 | 90° | 13km/h | 20737m | 5.7m/s | -56.4°C | 0.0% | 0hPa | 0V | 00:00:00 | 00:00:00 | 00:00:00 | |
| LZ4TU-5 | 2026-09-04 18:14:41 | 43.84001 | 22.61660 | 73° | 9km/h | 20707m | 5.9m/s | -56.9°C | 0.0% | 0hPa | 0V | 00:00:00 | 00:00:00 | 00:00:00 | |
| LZ4TU-5 | 2026-09-04 18:13:25 | 43.83813 | 22.61132 | 355° | 22km/h | 20232m | 5.8m/s | -57.2°C | 0.0% | 0hPa | 0V | 00:00:00 | 00:00:00 | 00:00:00 | |
| LZ4TU-5 | 2026-09-04 18:13:20 | 43.83787 | 22.61130 | 15° | 7km/h | 20202m | 6.1m/s | -57.1°C | 0.0% | 0hPa | 0V | 00:00:00 | 00:00:00 | 00:00:00 | |
| LZ4TU-5 | 2026-09-04 18:12:06 | 43.83893 | 22.61153 | 130° | 24km/h | 19762m | 5.9m/s | -56.6°C | 0.0% | 0hPa | 0V | 00:00:00 | 00:00:00 | 00:00:00 | |
| LZ4TU-5 | 2026-09-04 18:12:02 | 43.83905 | 22.61128 | 123° | 13km/h | 19737m | 5.8m/s | -56.7°C | 0.0% | 0hPa | 0V | 00:00:00 | 00:00:00 | 00:00:00 | |
| LZ4TU-5 | 2026-09-04 18:10:47 | 43.83895 | 22.60893 | 356° | 15km/h | 19264m | 5.5m/s | -56.5°C | 0.0% | 0hPa | 0V | 00:00:00 | 00:00:00 | 00:00:00 | |
| LZ4TU-5 | 2026-09-04 18:10:42 | 43.83868 | 22.60895 | 348° | 18km/h | 19234m | 4.7m/s | -56.4°C | 0.0% | 0hPa | 0V | 00:00:00 | 00:00:00 | 00:00:00 | |
| LZ4TU-5 | 2026-09-04 18:09:35 | 43.83930 | 22.60873 | 133° | 31km/h | 18846m | 5.4m/s | -56.4°C | 0.0% | 0hPa | 0V | 00:00:00 | 00:00:00 | 00:00:00 | |
| LZ4TU-5 | 2026-09-04 18:09:30 | 43.83952 | 22.60835 | 149° | 24km/h | 18818m | 5.3m/s | -56.5°C | 0.0% | 0hPa | 0V | 00:00:00 | 00:00:00 | 00:00:00 | |
| LZ4TU-5 | 2026-09-04 18:08:16 | 43.84094 | 22.60314 | 59° | 15km/h | 18369m | 5.5m/s | -56.1°C | 0.0% | 0hPa | 0V | 00:00:00 | 00:00:00 | 00:00:00 | |
| LZ4TU-5 | 2026-09-04 18:08:11 | 43.84090 | 22.60287 | 96° | 27km/h | 18337m | 5.2m/s | -56.5°C | 0% | 0hPa | 0V | 00:00:00 | 00:00:00 | 00:00:00 | |
| LZ4TU-5 | 2026-09-04 18:06:31 | 43.84275 | 22.59628 | 82° | 26km/h | 17796m | 5.1m/s | -59.5°C | 0.0% | 0hPa | 0V | 00:00:00 | 00:00:00 | 00:00:00 | |
| LZ4TU-5 | 2026-09-04 18:06:26 | 43.84270 | 22.59581 | 97° | 29km/h | 17767m | 6.2m/s | -59.8°C | 0.0% | 0hPa | 0V | 00:00:00 | 00:00:00 | 00:00:00 | |
| LZ4TU-5 | 2026-09-04 18:05:04 | 43.84343 | 22.59338 | 176° | 22km/h | 17252m | 7.4m/s | -58.9°C | 0.0% | 0hPa | 0V | 00:00:00 | 00:00:00 | 00:00:00 | |
| LZ4TU-5 | 2026-09-04 18:05:00 | 43.84362 | 22.59309 | 208° | 26km/h | 17224m | 6.6m/s | -59.0°C | 0.0% | 0hPa | 0V | 00:00:00 | 00:00:00 | 00:00:00 | |
| LZ4TU-5 | 2026-09-04 18:03:26 | 43.84745 | 22.58649 | 123° | 38km/h | 16686m | 6.8m/s | -58.8°C | 0.0% | 0hPa | 0V | 00:00:00 | 00:00:00 | 00:00:00 | |
| LZ4TU-5 | 2026-09-04 18:02:06 | 43.85063 | 22.57813 | 104° | 24km/h | 16196m | 4.5m/s | -58.1°C | 0.8% | 0hPa | 0V | 00:00:00 | 00:00:00 | 00:00:00 | |
| LZ4TU-5 | 2026-09-04 18:02:02 | 43.85070 | 22.57780 | 121° | 26km/h | 16176m | 4.2m/s | -58.0°C | 0.8% | 0hPa | 0V | 00:00:00 | 00:00:00 | 00:00:00 | |
| LZ4TU-5 | 2026-09-04 18:00:49 | 43.85397 | 22.57246 | 133° | 26km/h | 15855m | 8.7m/s | -58.6°C | 2.2% | 0hPa | 0V | 00:00:00 | 00:00:00 | 00:00:00 | |
| LZ4TU-5 | 2026-09-04 18:00:44 | 43.85418 | 22.57235 | 175° | 9km/h | 15815m | 6.2m/s | -58.2°C | 2.4% | 0hPa | 0V | 00:00:00 | 00:00:00 | 00:00:00 | |
| LZ4TU-5 | 2026-09-04 17:59:30 | 43.85683 | 22.56789 | 135° | 22km/h | 15374m | 5.6m/s | -58.2°C | 4.8% | 0hPa | 0V | 00:00:00 | 00:00:00 | 00:00:00 | |
| LZ4TU-5 | 2026-09-04 17:59:25 | 43.85704 | 22.56748 | 130° | 35km/h | 15346m | 5.1m/s | -58.3°C | 5.1% | 0hPa | 0V | 00:00:00 | 00:00:00 | 00:00:00 | |
| LZ4TU-5 | 2026-09-04 17:57:55 | 43.86383 | 22.56126 | 130° | 53km/h | 14806m | 4.7m/s | -59.1°C | 11.3% | 0hPa | 0V | 00:00:00 | 00:00:00 | 00:00:00 | |
| LZ4TU-5 | 2026-09-04 17:57:50 | 43.86418 | 22.56056 | 136° | 38km/h | 14778m | 6.7m/s | -59.1°C | 11.7% | 0hPa | 0V | 00:00:00 | 00:00:00 | 00:00:00 | |
| LZ4TU-5 | 2026-09-04 17:56:35 | 43.87217 | 22.55462 | 153° | 40km/h | 14385m | 5.6m/s | -61.4°C | 20.3% | 0hPa | 0V | 00:00:00 | 00:00:00 | 00:00:00 | |
| LZ4TU-5 | 2026-09-04 17:56:30 | 43.87252 | 22.55433 | 177° | 22km/h | 14355m | 6.0m/s | -61.4°C | 21.1% | 0hPa | 0V | 00:00:00 | 00:00:00 | 00:00:00 | |
| LZ4TU-5 | 2026-09-04 17:55:16 | 43.88209 | 22.55371 | 174° | 69km/h | 13895m | 7.3m/s | -62.9°C | 35.0% | 0hPa | 0V | 00:00:00 | 00:00:00 | 00:00:00 | |
| LZ4TU-5 | 2026-09-04 17:55:11 | 43.88312 | 22.55334 | 157° | 89km/h | 13871m | 6.2m/s | -62.9°C | 36.2% | 0hPa | 0V | 00:00:00 | 00:00:00 | 00:00:00 | |
| LZ4TU-5 | 2026-09-04 17:53:57 | 43.89541 | 22.55008 | 181° | 78km/h | 13431m | 6.5m/s | -63.5°C | 50.8% | 0hPa | 0V | 00:00:00 | 00:00:00 | 00:00:00 | |
| LZ4TU-5 | 2026-09-04 17:53:52 | 43.89646 | 22.55014 | 180° | 89km/h | 13405m | 5.7m/s | -63.8°C | 51.0% | 0hPa | 0V | 00:00:00 | 00:00:00 | 00:00:00 | |
| LZ4TU-5 | 2026-09-04 17:52:37 | 43.91425 | 22.55319 | 186° | 106km/h | 12938m | 5.4m/s | -63.3°C | 47.4% | 0hPa | 0V | 00:00:00 | 00:00:00 | 00:00:00 | |
| LZ4TU-5 | 2026-09-04 17:52:32 | 43.91553 | 22.55338 | 194° | 99km/h | 12907m | 7.9m/s | -63.2°C | 47.6% | 0hPa | 0V | 00:00:00 | 00:00:00 | 00:00:00 | |
| LZ4TU-5 | 2026-09-04 17:51:17 | 43.93690 | 22.55569 | 190° | 100km/h | 12430m | 8.9m/s | -59.8°C | 53.7% | 0hPa | 0V | 00:00:00 | 00:00:00 | 00:00:00 | |
| LZ4TU-5 | 2026-09-04 17:51:12 | 43.93813 | 22.55557 | 178° | 120km/h | 12396m | 5.1m/s | -59.5°C | 0% | 0hPa | 0V | 00:00:00 | 00:00:00 | 00:00:00 | |
| LZ4TU-5 | 2026-09-04 17:50:01 | 43.95835 | 22.55711 | 187° | 117km/h | 11964m | 6.0m/s | -56.0°C | 58.3% | 0hPa | 0V | 00:00:00 | 00:00:00 | 00:00:00 | |
| LZ4TU-5 | 2026-09-04 17:49:56 | 43.95982 | 22.55727 | 178° | 115km/h | 11940m | 5.9m/s | -55.7°C | 58.3% | 0hPa | 0V | 00:00:00 | 00:00:00 | 00:00:00 | |
| LZ4TU-5 | 2026-09-04 17:48:42 | 43.97996 | 22.55858 | 188° | 110km/h | 11531m | 3.3m/s | -52.2°C | 52.6% | 0hPa | 0V | 00:00:00 | 00:00:00 | 00:00:00 | |
| LZ4TU-5 | 2026-09-04 17:48:38 | 43.98138 | 22.55864 | 182° | 110km/h | 11507m | 4.8m/s | -52.1°C | 51.9% | 0hPa | 0V | 00:00:00 | 00:00:00 | 00:00:00 | |
| LZ4TU-5 | 2026-09-04 17:47:23 | 43.99995 | 22.56134 | 190° | 95km/h | 11073m | 5.9m/s | -48.6°C | 44.1% | 0hPa | 0V | 00:00:00 | 00:00:00 | 00:00:00 | |
| LZ4TU-5 | 2026-09-04 17:47:18 | 44.00117 | 22.56157 | 185° | 106km/h | 11047m | 4.6m/s | -48.4°C | 44.7% | 0hPa | 0V | 00:00:00 | 00:00:00 | 00:00:00 | |
| LZ4TU-5 | 2026-09-04 17:46:02 | 44.01918 | 22.56485 | 187° | 86km/h | 10612m | 5.1m/s | -44.9°C | 58.1% | 0hPa | 0V | 00:00:00 | 00:00:00 | 00:00:00 | |
| LZ4TU-5 | 2026-09-04 17:45:58 | 44.02014 | 22.56495 | 190° | 97km/h | 10592m | 5.2m/s | -44.7°C | 58.2% | 0hPa | 0V | 00:00:00 | 00:00:00 | 00:00:00 | |
| LZ4TU-5 | 2026-09-04 17:44:44 | 44.03640 | 22.56615 | 184° | 95km/h | 10174m | 2.0m/s | -41.0°C | 61.3% | 0hPa | 0V | 00:00:00 | 00:00:00 | 00:00:00 | |
| LZ4TU-5 | 2026-09-04 17:44:39 | 44.03721 | 22.56611 | 172° | 58km/h | 10150m | 2.3m/s | -40.9°C | 0% | 0hPa | 0V | 00:00:00 | 00:00:00 | 00:00:00 | |
| LZ4TU-5 | 2026-09-04 17:43:25 | 44.05223 | 22.56560 | 192° | 80km/h | 9688m | 4.6m/s | -37.1°C | 49.6% | 0hPa | 0V | 00:00:00 | 00:00:00 | 00:00:00 | |
| LZ4TU-5 | 2026-09-04 17:43:20 | 44.05325 | 22.56569 | 177° | 78km/h | 9664m | 6.2m/s | -36.9°C | 51.3% | 0hPa | 0V | 00:00:00 | 00:00:00 | 00:00:00 | |
| LZ4TU-5 | 2026-09-04 17:42:05 | 44.06656 | 22.56559 | 177° | 66km/h | 9203m | 8.8m/s | -33.0°C | 37.9% | 0hPa | 0V | 00:00:00 | 00:00:00 | 00:00:00 | |
| LZ4TU-5 | 2026-09-04 17:42:00 | 44.06748 | 22.56524 | 171° | 77km/h | 9171m | 7.0m/s | -32.7°C | 37.6% | 0hPa | 0V | 00:00:00 | 00:00:00 | 00:00:00 | |
| LZ4TU-5 | 2026-09-04 17:40:46 | 44.07987 | 22.56400 | 179° | 66km/h | 8715m | 6.1m/s | -29.2°C | 45.3% | 0hPa | 0V | 00:00:00 | 00:00:00 | 00:00:00 | |
| LZ4TU-5 | 2026-09-04 17:40:42 | 44.08058 | 22.56402 | 177° | 68km/h | 8696m | 4.2m/s | -29.0°C | 45.9% | 0hPa | 0V | 00:00:00 | 00:00:00 | 00:00:00 | |
| LZ4TU-5 | 2026-09-04 17:39:27 | 44.09059 | 22.56428 | 181° | 49km/h | 8259m | 6.7m/s | -25.4°C | 40.3% | 0hPa | 0V | 00:00:00 | 00:00:00 | 00:00:00 | |
| LZ4TU-5 | 2026-09-04 17:39:22 | 44.09126 | 22.56425 | 182° | 49km/h | 8228m | 6.6m/s | -25.1°C | 40.1% | 0hPa | 0V | 00:00:00 | 00:00:00 | 00:00:00 | |
| LZ4TU-5 | 2026-09-04 17:38:07 | 44.10114 | 22.56553 | 189° | 66km/h | 7803m | 4.7m/s | -22.0°C | 46.1% | 0hPa | 0V | 00:00:00 | 00:00:00 | 00:00:00 | |
| LZ4TU-5 | 2026-09-04 17:38:02 | 44.10186 | 22.56551 | 178° | 46km/h | 7768m | 5.3m/s | -21.7°C | 46.0% | 0hPa | 0V | 00:00:00 | 00:00:00 | 00:00:00 | |
| LZ4TU-5 | 2026-09-04 17:36:07 | 44.11874 | 22.56320 | 171° | 47km/h | 7127m | 7.4m/s | -16.8°C | 43.9% | 0hPa | 0V | 00:00:00 | 00:00:00 | 00:00:00 | |
| LZ4TU-5 | 2026-09-04 17:36:02 | 44.11939 | 22.56300 | 198° | 51km/h | 7098m | 6.9m/s | -16.6°C | 45.0% | 0hPa | 0V | 00:00:00 | 00:00:00 | 00:00:00 | |
| LZ4TU-5 | 2026-09-04 17:34:56 | 44.12958 | 22.56355 | 169° | 35km/h | 6724m | 5.9m/s | -14.1°C | 47.5% | 0hPa | 0V | 00:00:00 | 00:00:00 | 00:00:00 | |
| LZ4TU-5 | 2026-09-04 17:34:51 | 44.13032 | 22.56330 | 168° | 77km/h | 6692m | 6.7m/s | -13.8°C | 46.3% | 0hPa | 0V | 00:00:00 | 00:00:00 | 00:00:00 | |
| LZ4TU-5 | 2026-09-04 17:33:42 | 44.13978 | 22.56186 | 194° | 55km/h | 6277m | 6.4m/s | -10.3°C | 43.0% | 0hPa | 0V | 00:00:00 | 00:00:00 | 00:00:00 | |
| LZ4TU-5 | 2026-09-04 17:33:37 | 44.14058 | 22.56184 | 166° | 51km/h | 6248m | 6.6m/s | -10.1°C | 43.4% | 0hPa | 0V | 00:00:00 | 00:00:00 | 00:00:00 | |
| LZ4TU-5 | 2026-09-04 17:32:25 | 44.15104 | 22.56087 | 185° | 46km/h | 5825m | 5.7m/s | -7.6°C | 48.4% | 0hPa | 0V | 00:00:00 | 00:00:00 | 00:00:00 | |
| LZ4TU-5 | 2026-09-04 17:32:20 | 44.15173 | 22.56056 | 181° | 69km/h | 5794m | 6.1m/s | -7.5°C | 0% | 0hPa | 0V | 00:00:00 | 00:00:00 | 00:00:00 | |
| LZ4TU-5 | 2026-09-04 17:31:15 | 44.16059 | 22.55914 | 196° | 49km/h | 5432m | 4.7m/s | -5.8°C | 54.1% | 0hPa | 0V | 00:00:00 | 00:00:00 | 00:00:00 | |
| LZ4TU-5 | 2026-09-04 17:31:10 | 44.16151 | 22.55914 | 176° | 84km/h | 5406m | 2.4m/s | -5.7°C | 54.4% | 0hPa | 0V | 00:00:00 | 00:00:00 | 00:00:00 | |
| LZ4TU-5 | 2026-09-04 17:30:09 | 44.16904 | 22.55768 | 208° | 37km/h | 5089m | 3.3m/s | -5.3°C | 50.5% | 0hPa | 0V | 00:00:00 | 00:00:00 | 00:00:00 | |
| LZ4TU-5 | 2026-09-04 17:30:04 | 44.16959 | 22.55748 | 150° | 64km/h | 5058m | 6.7m/s | -5.2°C | 0% | 0hPa | 0V | 00:00:00 | 00:00:00 | 00:00:00 | |
| LZ4TU-5 | 2026-09-04 17:29:02 | 44.17695 | 22.55564 | 180° | 26km/h | 4754m | 3.1m/s | -3.8°C | 50.9% | 0hPa | 0V | 00:00:00 | 00:00:00 | 00:00:00 | |
| LZ4TU-5 | 2026-09-04 17:28:58 | 44.17744 | 22.55551 | 175° | 68km/h | 4736m | 3.3m/s | -3.8°C | 53.6% | 0hPa | 0V | 00:00:00 | 00:00:00 | 00:00:00 | |
| LZ4TU-5 | 2026-09-04 17:27:57 | 44.18553 | 22.55540 | 188° | 69km/h | 4427m | 5.8m/s | -2.3°C | 58.9% | 0hPa | 0V | 00:00:00 | 00:00:00 | 00:00:00 | |
| LZ4TU-5 | 2026-09-04 17:27:52 | 44.18608 | 22.55562 | 195° | 51km/h | 4399m | 5.9m/s | -2.1°C | 0% | 0hPa | 0V | 00:00:00 | 00:00:00 | 00:00:00 | |
| LZ4TU-5 | 2026-09-04 17:26:51 | 44.19352 | 22.55693 | 183° | 64km/h | 4078m | 5.2m/s | 0.3°C | 52.3% | 0hPa | 0V | 00:00:00 | 00:00:00 | 00:00:00 | |
| LZ4TU-5 | 2026-09-04 17:26:46 | 44.19420 | 22.55697 | 183° | 51km/h | 4048m | 8.0m/s | 0.5°C | 52.6% | 0hPa | 0V | 00:00:00 | 00:00:00 | 00:00:00 | |
| LZ4TU-5 | 2026-09-04 17:25:45 | 44.20215 | 22.55910 | 189° | 42km/h | 3683m | 6.4m/s | 3.2°C | 48.7% | 0hPa | 0V | 00:00:00 | 00:00:00 | 00:00:00 | |
| LZ4TU-5 | 2026-09-04 17:25:40 | 44.20290 | 22.55932 | 197° | 69km/h | 3653m | 5.1m/s | 3.4°C | 0% | 0hPa | 0V | 00:00:00 | 00:00:00 | 00:00:00 | |
| LZ4TU-5 | 2026-09-04 17:24:16 | 44.21041 | 22.55975 | 132° | 24km/h | 3167m | 5.6m/s | 6.4°C | 24.3% | 0hPa | 0V | 00:00:00 | 00:00:00 | 00:00:00 | |
| LZ4TU-5 | 2026-09-04 17:24:11 | 44.21071 | 22.55962 | 200° | 37km/h | 3129m | 6.2m/s | 6.6°C | 0% | 0hPa | 0V | 00:00:00 | 00:00:00 | 00:00:00 | |
| LZ4TU-5 | 2026-09-04 17:23:16 | 44.21495 | 22.55884 | 187° | 33km/h | 2818m | 4.8m/s | 8.4°C | 18.1% | 0hPa | 0V | 00:00:00 | 00:00:00 | 00:00:00 | |
| LZ4TU-5 | 2026-09-04 17:23:11 | 44.21531 | 22.55891 | 189° | 31km/h | 2790m | 7.3m/s | 8.6°C | 17.9% | 0hPa | 0V | 00:00:00 | 00:00:00 | 00:00:00 | |
| LZ4TU-5 | 2026-09-04 17:22:16 | 44.21962 | 22.55766 | 178° | 42km/h | 2480m | 6.5m/s | 8.6°C | 46.7% | 0hPa | 0V | 00:00:00 | 00:00:00 | 00:00:00 | |
| LZ4TU-5 | 2026-09-04 17:22:12 | 44.21995 | 22.55758 | 162° | 16km/h | 2457m | 5.7m/s | 8.7°C | 48.6% | 0hPa | 0V | 00:00:00 | 00:00:00 | 00:00:00 | |
| LZ4TU-5 | 2026-09-04 17:21:17 | 44.22188 | 22.55646 | 16° | 11km/h | 2138m | 6.0m/s | 10.7°C | 58.9% | 0hPa | 0V | 00:00:00 | 00:00:00 | 00:00:00 | |
| LZ4TU-5 | 2026-09-04 17:21:13 | 44.22195 | 22.55645 | 165° | 26km/h | 2115m | 5.4m/s | 11.0°C | 0% | 0hPa | 0V | 00:00:00 | 00:00:00 | 00:00:00 | |
| LZ4TU-5 | 2026-09-04 17:20:18 | 44.22345 | 22.55621 | 154° | 27km/h | 1818m | 6.8m/s | 13.8°C | 51.5% | 0hPa | 0V | 00:00:00 | 00:00:00 | 00:00:00 | |
| LZ4TU-5 | 2026-09-04 17:20:13 | 44.22366 | 22.55604 | 0° | 0km/h | 1787m | 5.9m/s | 14.0°C | 51.0% | 0hPa | 0V | 00:00:00 | 00:00:00 | 00:00:00 | |
| LZ4TU-5 | 2026-09-04 17:19:18 | 44.22564 | 22.55459 | 168° | 24km/h | 1457m | 6.3m/s | 17.1°C | 45.1% | 0hPa | 0V | 00:00:00 | 00:00:00 | 00:00:00 | |
| LZ4TU-5 | 2026-09-04 17:19:14 | 44.22581 | 22.55443 | 118° | 15km/h | 1433m | 5.9m/s | 17.3°C | 44.7% | 0hPa | 0V | 00:00:00 | 00:00:00 | 00:00:00 |